Time;durP1;ratioP1;P1;durP2;ratioP2;P2;SDS_P1;SDS_P2;PMS_P1;PMS_P2;Temp;Humidity;BMP_temperature;BMP_pressure;BME280_temperature;BME280_humidity;BME280_pressure;Samples;Min_cycle;Max_cycle;Signal;HPM_P1;HPM_P2
2021/10/17 00:01:14;;;;;;;15.80;9.70;;;;;5.80;101537.00;;;;10265977;28;20824;-82
2021/10/17 00:06:17;;;;;;;15.80;9.03;;;;;5.80;101522.00;;;;10288980;28;20203;-82
2021/10/17 00:11:19;;;;;;;15.23;9.30;;;;;5.80;101513.00;;;;10345758;28;20195;-82
2021/10/17 00:16:21;;;;;;;15.53;9.93;;;;;5.80;101518.00;;;;10346074;28;20195;-81
2021/10/17 00:21:23;;;;;;;16.93;9.37;;;;;5.90;101513.00;;;;10345570;28;20278;-82
2021/10/17 00:26:25;;;;;;;26.57;11.40;;;;;6.00;101503.00;;;;10345328;28;20199;-82
2021/10/17 00:31:27;;;;;;;24.20;13.13;;;;;6.10;101513.00;;;;10316460;28;20231;-82
2021/10/17 00:36:32;;;;;;;20.57;11.23;;;;;6.30;101512.00;;;;10304350;28;20254;-82
2021/10/17 00:41:34;;;;;;;18.00;10.17;;;;;6.40;101505.00;;;;10288934;28;20216;-82
2021/10/17 00:46:36;;;;;;;19.03;10.93;;;;;6.40;101507.00;;;;10272590;28;20260;-82
2021/10/17 00:51:38;;;;;;;22.93;10.60;;;;;6.40;101496.00;;;;10303922;28;20196;-82
2021/10/17 00:56:44;;;;;;;14.37;9.37;;;;;6.40;101512.00;;;;10319888;28;20282;-81
2021/10/17 01:01:46;;;;;;;16.20;10.33;;;;;6.40;101511.00;;;;10287515;28;20220;-82
2021/10/17 01:06:48;;;;;;;14.43;9.97;;;;;6.40;101491.00;;;;10287595;28;20286;-82
2021/10/17 01:11:50;;;;;;;15.73;10.00;;;;;6.30;101487.00;;;;10263148;28;20553;-81
2021/10/17 01:16:59;;;;;;;12.43;9.03;;;;;6.40;101495.00;;;;10263401;28;20203;-82
2021/10/17 01:22:03;;;;;;;21.87;8.73;;;;;6.40;101498.00;;;;10280438;28;20224;-82
2021/10/17 01:27:05;;;;;;;17.07;8.80;;;;;6.50;101506.00;;;;10301052;28;20546;-82
2021/10/17 01:32:07;;;;;;;17.80;8.50;;;;;6.60;101511.00;;;;10302538;28;20204;-82
2021/10/17 01:37:09;;;;;;;15.03;8.10;;;;;6.70;101515.00;;;;10286254;28;20196;-82
2021/10/17 01:42:12;;;;;;;16.50;8.97;;;;;6.70;101512.00;;;;10286554;28;20240;-82
2021/10/17 01:47:18;;;;;;;13.30;8.67;;;;;6.90;101509.00;;;;10287492;28;20192;-81
2021/10/17 01:52:21;;;;;;;23.57;9.23;;;;;7.00;101519.00;;;;10302902;28;20287;-82
2021/10/17 01:57:24;;;;;;;15.07;8.20;;;;;7.10;101523.00;;;;10302304;28;20238;-82
2021/10/17 02:02:27;;;;;;;19.40;8.37;;;;;7.20;101513.00;;;;10298515;28;20227;-82
2021/10/17 02:07:31;;;;;;;17.67;8.60;;;;;7.20;101523.00;;;;10339382;28;20199;-82
2021/10/17 02:12:35;;;;;;;16.90;8.60;;;;;7.20;101529.00;;;;10326829;28;20202;-81
2021/10/17 02:17:40;;;;;;;17.20;8.27;;;;;7.20;101527.00;;;;10350079;28;20199;-82
2021/10/17 02:22:44;;;;;;;16.03;8.47;;;;;7.30;101524.00;;;;10334243;28;20238;-82
2021/10/17 02:27:46;;;;;;;16.20;8.40;;;;;7.30;101523.00;;;;10318066;28;20222;-82
2021/10/17 02:32:48;;;;;;;19.83;9.30;;;;;7.30;101523.00;;;;10269935;28;20251;-82
2021/10/17 02:38:00;;;;;;;16.67;9.03;;;;;7.40;101519.00;;;;10268911;28;20653;-82
2021/10/17 02:43:07;;;;;;;17.83;8.90;;;;;7.40;101510.00;;;;10268840;28;20201;-82
2021/10/17 02:48:10;;;;;;;18.97;9.27;;;;;7.50;101515.00;;;;10268879;28;20177;-82
2021/10/17 02:53:12;;;;;;;19.43;9.47;;;;;7.50;101510.00;;;;10284358;28;20200;-82
2021/10/17 02:58:14;;;;;;;18.80;8.03;;;;;7.50;101520.00;;;;10286945;28;20213;-82
2021/10/17 03:03:17;;;;;;;18.70;8.27;;;;;7.60;101511.00;;;;10292247;28;20192;-82
2021/10/17 03:08:20;;;;;;;17.90;8.73;;;;;7.60;101504.00;;;;10291899;28;20236;-82
2021/10/17 03:13:24;;;;;;;17.53;8.10;;;;;7.60;101502.00;;;;10291986;28;20195;-82
2021/10/17 03:18:26;;;;;;;16.50;7.90;;;;;7.60;101499.00;;;;10291256;28;20687;-82
2021/10/17 03:23:29;;;;;;;15.23;9.00;;;;;7.70;101493.00;;;;10323232;28;20311;-83
2021/10/17 03:28:31;;;;;;;14.03;7.63;;;;;7.70;101492.00;;;;10291644;28;20251;-83
2021/10/17 03:33:34;;;;;;;25.57;9.03;;;;;7.70;101492.00;;;;10291378;28;20212;-82
2021/10/17 03:38:42;;;;;;;22.30;8.13;;;;;7.80;101493.00;;;;10291483;28;20217;-82
2021/10/17 03:43:47;;;;;;;18.80;8.43;;;;;7.80;101491.00;;;;10291238;28;20208;-82
2021/10/17 03:48:49;;;;;;;16.73;7.60;;;;;7.80;101494.00;;;;10306185;28;20203;-82
2021/10/17 03:53:55;;;;;;;12.10;7.13;;;;;7.90;101498.00;;;;10306418;28;20204;-82
2021/10/17 03:58:57;;;;;;;16.13;7.00;;;;;7.90;101492.00;;;;10290181;28;20227;-82
2021/10/17 04:04:00;;;;;;;10.97;6.90;;;;;7.90;101499.00;;;;10290843;28;20212;-82
2021/10/17 04:09:03;;;;;;;16.03;7.70;;;;;8.00;101494.00;;;;10305820;28;20201;-82
2021/10/17 04:14:04;;;;;;;13.80;6.90;;;;;8.00;101498.00;;;;10289982;28;20206;-82
2021/10/17 04:19:07;;;;;;;14.57;6.63;;;;;8.00;101492.00;;;;10289305;28;20227;-82
2021/10/17 04:24:08;;;;;;;15.73;6.00;;;;;8.10;101494.00;;;;10337628;28;20648;-82
2021/10/17 04:29:11;;;;;;;15.20;7.40;;;;;8.10;101489.00;;;;10304713;28;20196;-82
2021/10/17 04:34:13;;;;;;;10.43;5.90;;;;;8.10;101475.00;;;;10288846;28;20567;-82
2021/10/17 04:39:15;;;;;;;11.53;5.53;;;;;8.10;101491.00;;;;10288098;28;20786;-82
2021/10/17 04:44:17;;;;;;;14.43;6.37;;;;;8.10;101493.00;;;;10304420;28;20204;-82
2021/10/17 04:49:25;;;;;;;14.67;7.00;;;;;8.10;101493.00;;;;10304039;28;20202;-82
2021/10/17 04:54:27;;;;;;;18.77;6.37;;;;;8.10;101484.00;;;;10319859;28;20216;-82
2021/10/17 04:59:30;;;;;;;13.10;5.83;;;;;8.10;101484.00;;;;10303445;28;20290;-82
2021/10/17 05:04:36;;;;;;;15.40;7.17;;;;;8.20;101471.00;;;;10319800;28;20196;-82
2021/10/17 05:09:38;;;;;;;10.23;6.50;;;;;8.20;101478.00;;;;10293752;28;20205;-82
2021/10/17 05:14:40;;;;;;;12.33;6.73;;;;;8.20;101489.00;;;;10231771;28;20193;-82
2021/10/17 05:19:42;;;;;;;16.00;7.07;;;;;8.20;101487.00;;;;10263420;28;20221;-82
2021/10/17 05:24:44;;;;;;;13.60;6.70;;;;;8.20;101481.00;;;;10263906;28;20193;-82
2021/10/17 05:29:49;;;;;;;14.43;6.13;;;;;8.20;101491.00;;;;10278654;28;20756;-82
2021/10/17 05:34:51;;;;;;;15.73;6.60;;;;;8.20;101492.00;;;;10249120;28;20204;-83
2021/10/17 05:39:54;;;;;;;10.73;5.27;;;;;8.20;101483.00;;;;10246827;28;20220;-83
2021/10/17 05:44:56;;;;;;;14.27;6.70;;;;;8.20;101490.00;;;;10262668;28;20197;-82
2021/10/17 05:49:58;;;;;;;14.97;7.17;;;;;8.20;101496.00;;;;10246330;28;20220;-82
2021/10/17 05:55:00;;;;;;;13.00;6.17;;;;;8.20;101499.00;;;;10246046;28;20216;-82
2021/10/17 06:00:06;;;;;;;11.77;6.27;;;;;8.20;101513.00;;;;10279499;28;20231;-82
2021/10/17 06:05:15;;;;;;;10.73;5.93;;;;;8.20;101519.00;;;;10299807;28;20212;-82
2021/10/17 06:10:18;;;;;;;13.00;6.57;;;;;8.20;101521.00;;;;10261978;28;20201;-82
2021/10/17 06:15:22;;;;;;;17.33;8.33;;;;;8.30;101521.00;;;;10262780;28;20243;-82
2021/10/17 06:20:24;;;;;;;14.07;7.33;;;;;8.30;101527.00;;;;10261719;28;20255;-82
2021/10/17 06:25:26;;;;;;;13.30;6.67;;;;;8.40;101521.00;;;;10261707;28;20596;-82
2021/10/17 06:30:28;;;;;;;12.83;7.30;;;;;8.40;101528.00;;;;10261373;28;20523;-83
2021/10/17 06:35:30;;;;;;;14.80;7.13;;;;;8.40;101526.00;;;;10261455;28;20293;-82
2021/10/17 06:40:32;;;;;;;15.90;8.50;;;;;8.50;101537.00;;;;10261717;28;20276;-82
2021/10/17 06:45:36;;;;;;;14.10;7.00;;;;;8.60;101538.00;;;;10261191;28;20252;-82
2021/10/17 06:50:39;;;;;;;14.17;7.03;;;;;8.70;101542.00;;;;10261258;28;20653;-82
2021/10/17 06:55:43;;;;;;;9.50;6.17;;;;;8.80;101543.00;;;;10295065;28;20335;-82
2021/10/17 07:00:50;;;;;;;14.20;6.87;;;;;8.80;101548.00;;;;10304337;28;20224;-82
2021/10/17 07:05:53;;;;;;;21.30;7.47;;;;;8.90;101548.00;;;;10316247;28;20683;-82
2021/10/17 07:10:56;;;;;;;15.33;6.97;;;;;8.90;101549.00;;;;10316732;28;20299;-82
2021/10/17 07:16:30;;;;;;;14.97;7.07;;;;;9.00;101557.00;;;;10330013;28;20200;-83
2021/10/17 07:21:33;;;;;;;13.77;6.57;;;;;9.10;101561.00;;;;10332730;28;20236;-82
2021/10/17 07:26:37;;;;;;;13.67;6.90;;;;;9.30;101571.00;;;;10331964;28;20206;-82
2021/10/17 07:31:40;;;;;;;16.17;7.07;;;;;9.40;101559.00;;;;10296703;28;20227;-82
2021/10/17 07:36:43;;;;;;;16.77;7.50;;;;;9.50;101562.00;;;;10306883;28;20279;-82
2021/10/17 07:41:50;;;;;;;20.80;7.20;;;;;9.60;101574.00;;;;10307448;28;20216;-82
2021/10/17 07:46:53;;;;;;;20.40;8.33;;;;;9.60;101568.00;;;;10290862;28;20572;-82
2021/10/17 07:51:57;;;;;;;17.23;7.90;;;;;9.70;101572.00;;;;10290886;28;20192;-83
2021/10/17 07:57:01;;;;;;;18.83;8.03;;;;;10.00;101567.00;;;;10290437;28;20216;-82
2021/10/17 08:02:08;;;;;;;14.60;8.20;;;;;10.40;101563.00;;;;10290602;28;20557;-82
2021/10/17 08:07:15;;;;;;;14.57;7.07;;;;;10.60;101576.00;;;;10309315;28;20207;-82
2021/10/17 08:12:19;;;;;;;14.50;7.50;;;;;11.00;101567.00;;;;10329509;28;20200;-82
2021/10/17 08:17:21;;;;;;;16.20;7.40;;;;;11.40;101581.00;;;;10313846;28;20231;-82
2021/10/17 08:22:47;;;;;;;14.03;7.23;;;;;12.10;101577.00;;;;10348240;28;20223;-82
2021/10/17 08:27:49;;;;;;;9.93;5.53;;;;;12.30;101590.00;;;;10277748;28;20196;-82
2021/10/17 08:32:58;;;;;;;11.87;6.53;;;;;12.60;101577.00;;;;10249968;28;20189;-82
2021/10/17 08:38:02;;;;;;;12.47;6.40;;;;;13.20;101572.00;;;;10299901;28;20269;-82
2021/10/17 08:43:10;;;;;;;9.67;4.73;;;;;14.10;101568.00;;;;10305281;28;20364;-82
2021/10/17 08:48:28;;;;;;;9.55;4.25;;;;;14.80;101569.00;;;;10305213;28;20200;-82
2021/10/17 08:53:30;;;;;;;7.60;3.80;;;;;14.80;101569.00;;;;10319563;28;20193;-82
2021/10/17 08:58:41;;;;;;;9.03;4.40;;;;;14.70;101565.00;;;;10288016;28;20220;-82
2021/10/17 09:04:02;;;;;;;11.73;5.17;;;;;14.50;101571.00;;;;10288584;28;20197;-82
2021/10/17 09:09:20;;;;;;;9.38;4.07;;;;;14.80;101581.00;;;;10314525;28;20235;-82
2021/10/17 09:14:30;;;;;;;9.43;4.30;;;;;15.20;101569.00;;;;10319292;28;20231;-82
2021/10/17 09:19:32;;;;;;;7.63;4.15;;;;;15.40;101574.00;;;;10302730;28;20212;-82
2021/10/17 09:24:38;;;;;;;8.07;4.38;;;;;15.70;101561.00;;;;10302312;28;20196;-82
2021/10/17 09:29:52;;;;;;;7.20;4.03;;;;;16.00;101557.00;;;;10302535;28;20208;-82
2021/10/17 09:34:59;;;;;;;9.52;4.45;;;;;16.40;101563.00;;;;10302196;28;20251;-82
2021/10/17 09:40:19;;;;;;;8.23;3.90;;;;;16.60;101558.00;;;;10285947;28;20557;-82
2021/10/17 09:45:41;;;;;;;8.75;4.68;;;;;16.80;101559.00;;;;10302117;28;20204;-82
2021/10/17 09:50:43;;;;;;;5.72;3.50;;;;;16.80;101564.00;;;;10286654;28;20207;-82
2021/10/17 09:55:52;;;;;;;6.18;3.22;;;;;17.00;101561.00;;;;10286075;28;20862;-82
2021/10/17 10:00:54;;;;;;;7.65;3.42;;;;;17.10;101553.00;;;;10278883;28;20913;-82
2021/10/17 10:05:57;;;;;;;7.28;3.40;;;;;17.20;101567.00;;;;10277202;28;20212;-82
2021/10/17 10:11:00;;;;;;;7.50;3.90;;;;;17.30;101560.00;;;;10261388;28;20248;-82
2021/10/17 10:16:03;;;;;;;8.20;3.42;;;;;17.40;101560.00;;;;10293492;28;20193;-82
2021/10/17 10:21:05;;;;;;;10.05;3.65;;;;;17.60;101564.00;;;;10292945;28;20699;-82
2021/10/17 10:26:07;;;;;;;7.68;3.45;;;;;17.70;101558.00;;;;10260725;28;20197;-80
2021/10/17 10:31:42;;;;;;;13.82;3.80;;;;;17.70;101567.00;;;;10260943;28;20201;-82
2021/10/17 10:36:45;;;;;;;8.02;3.75;;;;;17.90;101557.00;;;;10273836;28;20200;-82
2021/10/17 10:42:01;;;;;;;10.48;4.28;;;;;17.90;101556.00;;;;10308355;28;20209;-81
2021/10/17 10:47:25;;;;;;;7.75;3.92;;;;;17.80;101547.00;;;;10308455;28;20843;-82
2021/10/17 10:52:31;;;;;;;6.68;3.63;;;;;17.90;101541.00;;;;10324659;28;20192;-81
2021/10/17 10:57:39;;;;;;;5.75;3.10;;;;;18.00;101538.00;;;;10323987;28;20270;-80
2021/10/17 11:03:11;;;;;;;6.38;3.13;;;;;18.30;101536.00;;;;10291191;28;20282;-79
2021/10/17 11:08:16;;;;;;;5.80;3.17;;;;;18.50;101541.00;;;;10275642;28;20208;-82
2021/10/17 11:13:47;;;;;;;8.00;4.30;;;;;18.60;101538.00;;;;10291601;28;20287;-80
2021/10/17 11:18:59;;;;;;;6.15;3.42;;;;;18.70;101530.00;;;;10305855;28;20200;-79
2021/10/17 11:24:01;;;;;;;9.60;3.80;;;;;18.70;101534.00;;;;10274433;28;20185;-80
2021/10/17 11:29:03;;;;;;;7.38;3.58;;;;;18.70;101530.00;;;;10305989;28;20192;-79
2021/10/17 11:34:06;;;;;;;8.95;4.32;;;;;18.70;101531.00;;;;10289796;28;20251;-80
2021/10/17 11:39:08;;;;;;;5.70;3.42;;;;;18.80;101532.00;;;;10289600;28;20226;-79
2021/10/17 11:44:10;;;;;;;5.88;3.35;;;;;18.90;101526.00;;;;10305379;28;20207;-80
2021/10/17 11:49:19;;;;;;;7.07;2.95;;;;;19.00;101530.00;;;;10319944;28;20250;-80
2021/10/17 11:54:23;;;;;;;4.97;2.72;;;;;19.00;101526.00;;;;10288699;28;20220;-79
2021/10/17 11:59:25;;;;;;;5.97;3.03;;;;;19.00;101522.00;;;;10304696;28;20227;-79
2021/10/17 12:04:43;;;;;;;3.92;3.08;;;;;18.90;101523.00;;;;10304643;28;20200;-79
2021/10/17 12:09:45;;;;;;;10.32;3.70;;;;;18.70;101525.00;;;;10288727;28;20563;-80
2021/10/17 12:15:05;;;;;;;7.13;2.65;;;;;18.60;101521.00;;;;10288531;28;20666;-79
2021/10/17 12:20:16;;;;;;;3.58;2.42;;;;;18.50;101516.00;;;;10304098;28;20218;-80
2021/10/17 12:25:18;;;;;;;6.30;2.70;;;;;18.60;101513.00;;;;10303987;28;20196;-79
2021/10/17 12:30:34;;;;;;;5.20;2.67;;;;;18.50;101511.00;;;;10303148;28;20204;-81
2021/10/17 12:35:37;;;;;;;5.60;2.63;;;;;18.50;101512.00;;;;10303567;28;20195;-79
2021/10/17 12:40:57;;;;;;;6.70;2.40;;;;;18.60;101501.00;;;;10286686;28;20698;-79
2021/10/17 12:46:16;;;;;;;4.93;2.40;;;;;18.50;101501.00;;;;10263524;28;20201;-79
2021/10/17 12:51:31;;;;;;;4.55;2.08;;;;;18.50;101492.00;;;;10278757;28;20322;-80
2021/10/17 12:56:35;;;;;;;5.40;2.78;;;;;18.70;101483.00;;;;10262727;28;20268;-79
2021/10/17 13:01:37;;;;;;;3.17;2.22;;;;;18.60;101486.00;;;;10262650;28;20217;-79
2021/10/17 13:06:53;;;;;;;2.35;1.75;;;;;18.60;101479.00;;;;10262597;28;20272;-81
2021/10/17 13:11:54;;;;;;;4.55;2.25;;;;;18.70;101481.00;;;;10278196;28;20189;-79
2021/10/17 13:16:56;;;;;;;2.95;2.13;;;;;18.60;101488.00;;;;10262231;28;20271;-79
2021/10/17 13:22:02;;;;;;;5.28;2.00;;;;;18.40;101483.00;;;;10277451;28;20244;-81
2021/10/17 13:27:04;;;;;;;4.28;2.25;;;;;18.30;101483.00;;;;10277709;28;20321;-79
2021/10/17 13:32:06;;;;;;;6.32;2.40;;;;;18.10;101479.00;;;;10277183;28;20252;-79
2021/10/17 13:37:08;;;;;;;9.80;2.65;;;;;18.00;101470.00;;;;10277325;28;20251;-81
2021/10/17 13:42:10;;;;;;;6.38;2.38;;;;;18.00;101463.00;;;;10300785;28;20684;-81
2021/10/17 13:47:12;;;;;;;6.00;2.83;;;;;17.90;101465.00;;;;10333982;28;20570;-81
2021/10/17 13:52:14;;;;;;;5.10;2.10;;;;;17.80;101464.00;;;;10302298;28;20189;-81
2021/10/17 13:57:16;;;;;;;4.65;2.00;;;;;17.70;101455.00;;;;10301855;28;20220;-81
2021/10/17 14:02:19;;;;;;;5.15;2.42;;;;;17.60;101459.00;;;;10302036;28;20624;-82
2021/10/17 14:07:21;;;;;;;4.50;2.50;;;;;17.50;101461.00;;;;10281463;28;20709;-81
2021/10/17 14:12:23;;;;;;;7.07;2.47;;;;;17.50;101472.00;;;;10268182;28;20252;-82
2021/10/17 14:17:25;;;;;;;6.55;2.92;;;;;17.30;101461.00;;;;10270873;28;20342;-81
2021/10/17 14:22:27;;;;;;;4.07;2.35;;;;;17.20;101459.00;;;;10269726;28;20213;-81
2021/10/17 14:27:28;;;;;;;6.00;2.70;;;;;17.20;101468.00;;;;10269773;28;20197;-81
2021/10/17 14:32:30;;;;;;;7.90;2.58;;;;;17.00;101465.00;;;;10298589;28;20197;-81
2021/10/17 14:37:32;;;;;;;8.55;3.10;;;;;16.80;101483.00;;;;10285579;28;20220;-81
2021/10/17 14:42:35;;;;;;;11.30;3.78;;;;;16.70;101473.00;;;;10268917;28;20244;-82
2021/10/17 14:47:37;;;;;;;7.45;3.30;;;;;16.50;101470.00;;;;10284869;28;20189;-82
2021/10/17 14:52:40;;;;;;;7.28;3.70;;;;;16.40;101468.00;;;;10284589;28;20193;-82
2021/10/17 14:57:43;;;;;;;10.02;3.60;;;;;16.20;101462.00;;;;10268340;28;20883;-81
2021/10/17 15:02:45;;;;;;;8.90;3.20;;;;;16.00;101454.00;;;;10252422;28;20212;-81
2021/10/17 15:07:47;;;;;;;7.53;3.72;;;;;15.80;101451.00;;;;10331173;28;20693;-81
2021/10/17 15:12:50;;;;;;;13.20;3.90;;;;;15.60;101447.00;;;;10348000;28;20194;-82
2021/10/17 15:17:51;;;;;;;11.80;4.10;;;;;15.50;101441.00;;;;10296324;28;20247;-82
2021/10/17 15:22:53;;;;;;;12.13;4.13;;;;;15.30;101450.00;;;;10298421;28;20211;-82
2021/10/17 15:27:55;;;;;;;11.33;4.60;;;;;15.10;101431.00;;;;10284953;28;20193;-83
2021/10/17 15:32:57;;;;;;;11.67;4.40;;;;;15.00;101431.00;;;;10300628;28;20216;-82
2021/10/17 15:37:59;;;;;;;9.87;5.10;;;;;14.80;101444.00;;;;10297479;28;20243;-82
2021/10/17 15:43:02;;;;;;;14.90;6.00;;;;;14.70;101445.00;;;;10293270;28;20220;-82
2021/10/17 15:48:05;;;;;;;12.30;5.30;;;;;14.60;101440.00;;;;10300484;28;20184;-82
2021/10/17 15:53:07;;;;;;;12.93;5.10;;;;;14.50;101449.00;;;;10298585;28;20192;-82
2021/10/17 15:58:09;;;;;;;13.43;5.00;;;;;14.40;101448.00;;;;10292543;28;20220;-82
2021/10/17 16:03:12;;;;;;;13.03;5.47;;;;;14.30;101455.00;;;;10301957;28;20227;-82
2021/10/17 16:08:14;;;;;;;13.67;5.40;;;;;14.20;101456.00;;;;10290342;28;20212;-82
2021/10/17 16:13:16;;;;;;;11.83;6.10;;;;;14.00;101457.00;;;;10302401;28;20192;-82
2021/10/17 16:18:18;;;;;;;15.87;6.67;;;;;13.90;101467.00;;;;10300034;28;20196;-82
2021/10/17 16:23:25;;;;;;;18.73;8.00;;;;;13.70;101463.00;;;;10268136;28;20691;-82
2021/10/17 16:28:30;;;;;;;21.60;8.80;;;;;13.60;101471.00;;;;10299349;28;20192;-82
2021/10/17 16:33:36;;;;;;;16.43;7.63;;;;;13.60;101482.00;;;;10275139;28;20192;-82
2021/10/17 16:38:39;;;;;;;19.17;8.80;;;;;13.40;101496.00;;;;10308316;28;20196;-82
2021/10/17 16:43:47;;;;;;;13.70;7.23;;;;;13.30;101501.00;;;;10292294;28;20207;-82
2021/10/17 16:48:49;;;;;;;18.23;8.43;;;;;13.20;101508.00;;;;10298129;28;20200;-82
2021/10/17 16:53:51;;;;;;;20.70;8.27;;;;;13.10;101524.00;;;;10285860;28;20197;-82
2021/10/17 16:58:54;;;;;;;20.67;8.03;;;;;13.00;101535.00;;;;10294289;28;20301;-82
2021/10/17 17:03:56;;;;;;;19.60;10.13;;;;;12.80;101547.00;;;;10293837;28;20204;-82
2021/10/17 17:08:58;;;;;;;27.83;15.70;;;;;12.70;101561.00;;;;10292848;28;20660;-82
2021/10/17 17:13:59;;;;;;;22.53;10.97;;;;;12.60;101535.00;;;;10295542;28;20232;-82
2021/10/17 17:19:06;;;;;;;24.73;11.03;;;;;12.50;101537.00;;;;10277817;28;20565;-82
2021/10/17 17:24:09;;;;;;;20.17;9.97;;;;;12.40;101558.00;;;;10276777;28;20208;-82
2021/10/17 17:29:11;;;;;;;18.23;10.90;;;;;12.30;101551.00;;;;10298638;28;20300;-82
2021/10/17 17:34:13;;;;;;;20.73;11.87;;;;;12.20;101550.00;;;;10293048;28;20216;-82
2021/10/17 17:39:15;;;;;;;24.67;13.77;;;;;12.10;101557.00;;;;10296039;28;20206;-82
2021/10/17 17:44:17;;;;;;;25.97;13.13;;;;;12.00;101554.00;;;;10270176;28;20267;-82
2021/10/17 17:49:19;;;;;;;19.50;11.37;;;;;12.00;101563.00;;;;10274371;28;20201;-82
2021/10/17 17:54:24;;;;;;;21.07;11.20;;;;;11.90;101549.00;;;;10313625;28;20330;-82
2021/10/17 17:59:26;;;;;;;16.97;8.27;;;;;11.90;101554.00;;;;10299487;28;20227;-82
2021/10/17 18:04:28;;;;;;;20.93;9.00;;;;;11.80;101564.00;;;;10276889;28;20224;-82
2021/10/17 18:09:30;;;;;;;22.67;11.53;;;;;11.80;101569.00;;;;10260436;28;20209;-82
2021/10/17 18:14:31;;;;;;;21.03;10.03;;;;;11.70;101573.00;;;;10320241;28;20215;-82
2021/10/17 18:19:33;;;;;;;14.43;9.70;;;;;11.60;101562.00;;;;10293675;28;20191;-82
2021/10/17 18:24:35;;;;;;;14.27;10.23;;;;;11.50;101546.00;;;;10295284;28;20213;-82
2021/10/17 18:29:38;;;;;;;11.10;8.30;;;;;11.50;101546.00;;;;10294079;28;20196;-82
2021/10/17 18:34:40;;;;;;;11.93;7.87;;;;;11.60;101530.00;;;;10310959;28;20199;-82
2021/10/17 18:39:42;;;;;;;14.80;8.83;;;;;11.60;101529.00;;;;10276017;28;20770;-82
2021/10/17 18:44:43;;;;;;;16.97;10.20;;;;;11.70;101527.00;;;;10294838;28;20212;-81
2021/10/17 18:49:45;;;;;;;15.77;9.80;;;;;11.80;101528.00;;;;10295744;28;20204;-82
2021/10/17 18:54:47;;;;;;;22.10;12.47;;;;;11.80;101538.00;;;;10286119;28;20217;-82
2021/10/17 18:59:49;;;;;;;19.90;10.83;;;;;11.80;101546.00;;;;10295150;28;20204;-82
2021/10/17 19:04:51;;;;;;;14.63;8.70;;;;;11.80;101554.00;;;;10296196;28;20664;-83
2021/10/17 19:09:53;;;;;;;18.30;9.30;;;;;11.70;101556.00;;;;10313590;28;20212;-83
2021/10/17 19:14:55;;;;;;;16.50;9.03;;;;;11.70;101556.00;;;;10292260;28;20196;-82
2021/10/17 19:19:57;;;;;;;21.47;9.60;;;;;11.70;101543.00;;;;10308943;28;20200;-81
2021/10/17 19:25:00;;;;;;;15.73;9.87;;;;;11.70;101579.00;;;;10297902;28;20204;-81
2021/10/17 19:30:04;;;;;;;13.23;8.73;;;;;11.70;101594.00;;;;10301479;28;20200;-82
2021/10/17 19:35:06;;;;;;;19.17;9.40;;;;;11.70;101600.00;;;;10308610;28;20181;-82
2021/10/17 19:40:09;;;;;;;18.30;9.90;;;;;11.60;101595.00;;;;10270056;28;20228;-82
2021/10/17 19:45:12;;;;;;;17.67;10.27;;;;;11.40;101594.00;;;;10296670;28;20220;-82
2021/10/17 19:50:15;;;;;;;18.03;9.73;;;;;11.20;101587.00;;;;10300355;28;20283;-82
2021/10/17 19:55:18;;;;;;;17.93;10.00;;;;;11.00;101579.00;;;;10300591;28;20584;-82
2021/10/17 20:00:20;;;;;;;21.67;12.27;;;;;10.90;101581.00;;;;10290862;28;20316;-82
2021/10/17 20:05:22;;;;;;;21.77;13.10;;;;;10.80;101589.00;;;;10284179;28;20192;-81
2021/10/17 20:10:24;;;;;;;29.03;13.67;;;;;10.70;101598.00;;;;10299756;28;20197;-81
2021/10/17 20:15:26;;;;;;;20.70;12.67;;;;;10.50;101594.00;;;;10287037;28;20197;-82
2021/10/17 20:20:28;;;;;;;28.20;18.43;;;;;10.30;101601.00;;;;10296354;28;20929;-81
2021/10/17 20:25:30;;;;;;;18.47;11.93;;;;;10.10;101601.00;;;;10283127;28;20227;-82
2021/10/17 20:30:36;;;;;;;14.57;9.60;;;;;9.90;101604.00;;;;10292028;28;20266;-81
2021/10/17 20:35:48;;;;;;;17.10;10.20;;;;;9.60;101601.00;;;;10313513;28;20189;-82
2021/10/17 20:40:50;;;;;;;13.50;9.53;;;;;9.40;101590.00;;;;10302338;28;20208;-81
2021/10/17 20:45:53;;;;;;;17.43;10.37;;;;;9.30;101590.00;;;;10280995;28;20200;-82
2021/10/17 20:51:16;;;;;;;16.90;10.47;;;;;9.30;101592.00;;;;10301597;28;20191;-81
2021/10/17 20:56:18;;;;;;;17.97;11.33;;;;;9.20;101598.00;;;;10294906;28;20223;-82
2021/10/17 21:01:19;;;;;;;18.80;10.87;;;;;9.20;101594.00;;;;10286876;28;20219;-82
2021/10/17 21:06:24;;;;;;;17.73;11.67;;;;;9.10;101589.00;;;;10293710;28;20200;-82
2021/10/17 21:11:27;;;;;;;18.23;11.77;;;;;9.10;101598.00;;;;10282008;28;20218;-82
2021/10/17 21:16:30;;;;;;;18.93;10.60;;;;;8.90;101615.00;;;;10289228;28;20188;-82
2021/10/17 21:21:32;;;;;;;14.47;10.33;;;;;8.80;101609.00;;;;10297480;28;20204;-81
2021/10/17 21:26:34;;;;;;;14.87;10.40;;;;;8.60;101599.00;;;;10298466;28;20204;-82
2021/10/17 21:31:36;;;;;;;17.13;11.40;;;;;8.40;101597.00;;;;10278791;28;20189;-82
2021/10/17 21:36:38;;;;;;;14.70;10.57;;;;;8.30;101592.00;;;;10271226;28;20200;-82
2021/10/17 21:41:40;;;;;;;16.63;11.27;;;;;8.20;101606.00;;;;10298430;28;20196;-82
2021/10/17 21:46:42;;;;;;;18.00;11.97;;;;;8.10;101612.00;;;;10281647;28;20208;-82
2021/10/17 21:51:44;;;;;;;17.07;12.40;;;;;8.00;101621.00;;;;10297079;28;20197;-82
2021/10/17 21:56:46;;;;;;;17.00;12.73;;;;;8.00;101616.00;;;;10279491;28;20216;-82
2021/10/17 22:01:49;;;;;;;18.67;13.20;;;;;7.90;101603.00;;;;10285964;28;20224;-82
2021/10/17 22:06:51;;;;;;;17.10;12.23;;;;;7.90;101614.00;;;;10285124;28;20231;-82
2021/10/17 22:11:53;;;;;;;20.10;12.13;;;;;7.80;101608.00;;;;10275675;28;20192;-82
2021/10/17 22:16:55;;;;;;;18.67;13.43;;;;;7.70;101612.00;;;;10300199;28;20262;-82
2021/10/17 22:21:57;;;;;;;22.60;14.07;;;;;7.60;101613.00;;;;10300106;28;20503;-82
2021/10/17 22:26:59;;;;;;;26.33;16.70;;;;;7.60;101609.00;;;;10260214;28;20279;-82
2021/10/17 22:32:02;;;;;;;27.20;16.13;;;;;7.70;101609.00;;;;10272735;28;20219;-82
2021/10/17 22:37:03;;;;;;;28.07;17.67;;;;;7.90;101625.00;;;;10307834;28;20266;-82
2021/10/17 22:42:06;;;;;;;26.53;18.20;;;;;7.90;101626.00;;;;10308113;28;20204;-82
2021/10/17 22:47:08;;;;;;;25.07;17.67;;;;;8.00;101630.00;;;;10292053;28;20275;-82
2021/10/17 22:52:10;;;;;;;24.60;16.90;;;;;8.00;101622.00;;;;10283949;28;20200;-82
2021/10/17 22:57:11;;;;;;;30.10;16.83;;;;;8.00;101618.00;;;;10322610;28;20247;-82
2021/10/17 23:02:14;;;;;;;32.30;16.83;;;;;8.10;101617.00;;;;10312347;28;20227;-82
2021/10/17 23:07:17;;;;;;;24.73;16.00;;;;;8.10;101615.00;;;;10312337;28;20211;-82
2021/10/17 23:12:19;;;;;;;28.90;17.03;;;;;8.10;101614.00;;;;10292008;28;20264;-82
2021/10/17 23:17:22;;;;;;;22.07;15.87;;;;;8.10;101617.00;;;;10335930;28;20259;-82
2021/10/17 23:22:25;;;;;;;28.20;16.37;;;;;8.00;101613.00;;;;10299776;28;20225;-82
2021/10/17 23:27:27;;;;;;;26.37;16.50;;;;;8.00;101608.00;;;;10305430;28;20263;-82
2021/10/17 23:32:29;;;;;;;23.60;15.07;;;;;8.00;101624.00;;;;10285929;28;20201;-82
2021/10/17 23:37:31;;;;;;;25.37;15.20;;;;;7.90;101628.00;;;;10298431;28;20204;-82
2021/10/17 23:42:33;;;;;;;22.80;15.60;;;;;7.90;101631.00;;;;10306117;28;20212;-82
2021/10/17 23:47:35;;;;;;;22.40;15.23;;;;;7.90;101641.00;;;;10305661;28;20254;-82
2021/10/17 23:52:42;;;;;;;20.23;15.13;;;;;7.90;101635.00;;;;10305876;28;20279;-82
2021/10/17 23:57:43;;;;;;;23.63;16.47;;;;;7.90;101630.00;;;;10304689;28;20220;-82
